Current | Forecast
Updated: 1:00 AM JST on June 22, 2018
Observed at Kansai, Japan
Temperature 68°F
Humidity 100%
Dew Point 68°F
Wind ENE at 6 mph
Pressure 29.77 in (Steady)
Conditions Mostly Cloudy
Visibility 6.2 miles
UV 0 out of 16
Clouds Mostly Cloudy (BKN) : 4600 ft
Mostly Cloudy (BKN) : 10000 ft
Yesterday's Maximum 79°F
Yesterday's Minimum 70°F approx.
Yesterday's Cooling Degree Days 9 approx.
Sunrise4:47 AM JST
Sunset7:14 PM JST
Moon Rise1:39 PM JST
Moon Set12:58 AM JST
Moon PhaseMoon Phase
Waxing Gibbous
Raw METARMETAR RJBB 211600Z AUTO 07005KT 9999 BKN046 BKN100 20/20 Q1008 NOSIG


Monday
. High: 75° F.
Tuesday
. High: 73° F.
Wednesday
. High: 73° F.
Thursday
. High: 75° F.
Friday
. High: 73° F.
Saturday
. High: 73° F.
Sunday
. High: 75° F.
Monday
. High: 77° F.

Units: English | Metric

Find the Weather for any City, State or Zipcode, or Country:

U.S. State List | Severe Weather | Tropical Storms | Ski Conditions
United States | Canada | Central America | South America | Asia | Europe | Australia | Africa | Islands

Weather Underground

© Copyright 2018
The Weather Company, LLC